Time;durP1;ratioP1;P1;durP2;ratioP2;P2;SDS_P1;SDS_P2;PMS_P1;PMS_P2;Temp;Humidity;BMP_temperature;BMP_pressure;BME280_temperature;BME280_humidity;BME280_pressure;Samples;Min_cycle;Max_cycle;Signal;HPM_P1;HPM_P2
2022/07/15 00:01:15;;;;;;;195.45;186.52;;;13.70;99.90;;;;;;5095423;28;20055;-60
2022/07/15 00:03:41;;;;;;;203.98;194.85;;;13.70;99.90;;;;;;5094656;28;20040;-60
2022/07/15 00:06:07;;;;;;;220.43;210.23;;;13.80;99.90;;;;;;5094205;28;20534;-60
2022/07/15 00:08:32;;;;;;;187.00;178.52;;;13.70;99.90;;;;;;5086599;28;20410;-60
2022/07/15 00:10:58;;;;;;;269.35;256.33;;;13.80;99.90;;;;;;5075164;28;20637;-60
2022/07/15 00:13:25;;;;;;;233.35;222.27;;;13.80;99.90;;;;;;5075188;28;20113;-60
2022/07/15 00:15:51;;;;;;;188.18;179.75;;;13.80;99.90;;;;;;5074314;28;20043;-60
2022/07/15 00:18:17;;;;;;;188.55;179.98;;;13.80;99.90;;;;;;5074944;28;20040;-60
2022/07/15 00:20:43;;;;;;;200.88;192.05;;;13.80;99.90;;;;;;5056090;28;20092;-60
2022/07/15 00:23:08;;;;;;;219.85;209.60;;;13.80;99.90;;;;;;5091453;28;20084;-60
2022/07/15 00:25:34;;;;;;;224.50;214.43;;;13.70;99.90;;;;;;5089921;28;20048;-60
2022/07/15 00:28:03;;;;;;;206.52;196.82;;;13.70;99.90;;;;;;5073679;28;20368;-60
2022/07/15 00:30:32;;;;;;;173.82;166.07;;;13.60;99.90;;;;;;5079330;28;20063;-60
2022/07/15 00:32:58;;;;;;;180.85;172.52;;;13.60;99.90;;;;;;5076809;28;20059;-60
2022/07/15 00:35:24;;;;;;;227.02;216.40;;;13.60;99.90;;;;;;5094060;28;20040;-60
2022/07/15 00:37:50;;;;;;;235.05;224.25;;;13.70;99.90;;;;;;5089462;28;20491;-60
2022/07/15 00:40:15;;;;;;;220.05;209.60;;;13.70;99.90;;;;;;5087149;28;20056;-60
2022/07/15 00:42:44;;;;;;;195.05;185.35;;;13.70;99.90;;;;;;5093460;28;20047;-60
2022/07/15 00:45:11;;;;;;;172.13;164.38;;;13.70;99.90;;;;;;5094527;28;20040;-60
2022/07/15 00:47:37;;;;;;;183.02;174.43;;;13.70;99.90;;;;;;5086721;28;20037;-60
2022/07/15 00:50:03;;;;;;;275.38;261.17;;;13.70;99.90;;;;;;5055998;28;20056;-60
2022/07/15 00:52:29;;;;;;;239.13;226.95;;;13.70;99.90;;;;;;5075238;28;20046;-60
2022/07/15 00:54:58;;;;;;;298.40;282.00;;;13.60;99.90;;;;;;5093452;28;20087;-60
2022/07/15 00:57:25;;;;;;;162.05;154.48;;;13.70;99.90;;;;;;5085607;28;20036;-60
2022/07/15 00:59:53;;;;;;;264.65;250.65;;;13.60;99.90;;;;;;5073434;28;20490;-60
2022/07/15 01:02:20;;;;;;;281.92;266.13;;;13.70;99.90;;;;;;5072380;28;20414;-60
2022/07/15 01:04:47;;;;;;;163.52;155.93;;;13.70;99.90;;;;;;5073802;28;20550;-60
2022/07/15 01:07:13;;;;;;;353.48;332.00;;;13.60;99.90;;;;;;5055130;28;20049;-60
2022/07/15 01:09:39;;;;;;;337.05;317.90;;;13.60;99.90;;;;;;5054971;28;20051;-60
2022/07/15 01:12:05;;;;;;;306.52;290.63;;;13.60;99.90;;;;;;5055887;28;20495;-60
2022/07/15 01:14:31;;;;;;;355.02;332.95;;;13.60;99.90;;;;;;5058885;28;20108;-60
2022/07/15 01:16:57;;;;;;;242.15;230.75;;;13.60;99.90;;;;;;5058538;28;20047;-60
2022/07/15 01:19:23;;;;;;;371.13;350.15;;;13.60;99.90;;;;;;5056005;28;20048;-60
2022/07/15 01:21:49;;;;;;;287.83;272.60;;;13.50;99.90;;;;;;5072946;28;20128;-60
2022/07/15 01:24:15;;;;;;;324.00;306.08;;;13.40;99.90;;;;;;5054684;28;20118;-60
2022/07/15 01:26:44;;;;;;;478.05;446.25;;;13.30;99.90;;;;;;5055850;28;20076;-60
2022/07/15 01:29:12;;;;;;;477.42;448.15;;;13.20;99.90;;;;;;5055297;28;20127;-60
2022/07/15 01:31:40;;;;;;;444.13;417.05;;;13.00;99.90;;;;;;5072781;28;20040;-60
2022/07/15 01:34:05;;;;;;;386.77;365.77;;;13.00;99.90;;;;;;5074365;28;20109;-60
2022/07/15 01:36:33;;;;;;;397.00;373.70;;;12.90;99.90;;;;;;5074856;28;20075;-60
2022/07/15 01:39:00;;;;;;;473.98;444.92;;;12.80;99.90;;;;;;5056976;28;20055;-60
2022/07/15 01:41:26;;;;;;;471.95;440.15;;;12.70;99.90;;;;;;5066425;28;20048;-60
2022/07/15 01:43:52;;;;;;;495.27;462.60;;;12.60;99.90;;;;;;5074183;28;20048;-60
2022/07/15 01:46:18;;;;;;;493.20;458.95;;;12.50;99.90;;;;;;5093674;28;20169;-60
2022/07/15 01:51:45;;;;;;;514.20;478.30;;;12.40;99.90;;;;;;5089675;28;20562;-60
2022/07/15 01:54:11;;;;;;;542.47;505.27;;;12.50;99.90;;;;;;5075348;28;20043;-60
2022/07/15 01:56:38;;;;;;;529.92;492.50;;;12.40;99.90;;;;;;5058425;28;20044;-60
2022/07/15 01:59:04;;;;;;;539.63;502.40;;;12.40;99.90;;;;;;5073256;28;20047;-60
2022/07/15 02:01:31;;;;;;;586.08;545.20;;;12.40;99.90;;;;;;5075154;28;20040;-60
2022/07/15 02:04:01;;;;;;;561.35;523.17;;;12.40;99.90;;;;;;5075024;28;20043;-60
2022/07/15 02:06:28;;;;;;;571.72;532.38;;;12.40;99.90;;;;;;5055879;28;20044;-60
2022/07/15 02:08:54;;;;;;;551.42;514.15;;;12.40;99.90;;;;;;5057420;28;20056;-60
2022/07/15 02:11:22;;;;;;;552.60;514.78;;;12.40;99.90;;;;;;5054918;28;20040;-60
2022/07/15 02:13:49;;;;;;;533.60;497.23;;;12.30;99.90;;;;;;5070889;28;20394;-60
2022/07/15 02:16:16;;;;;;;501.73;465.45;;;12.30;99.90;;;;;;5055237;28;20041;-60
2022/07/15 02:18:42;;;;;;;372.75;347.48;;;12.30;99.90;;;;;;5093160;28;20097;-60
2022/07/15 02:21:08;;;;;;;446.13;416.17;;;12.20;99.90;;;;;;5073823;28;20123;-59
2022/07/15 02:23:34;;;;;;;514.58;477.85;;;12.20;99.90;;;;;;5092919;28;20083;-60
2022/07/15 02:25:59;;;;;;;603.83;556.80;;;12.20;99.90;;;;;;5091225;28;20055;-60
2022/07/15 02:28:26;;;;;;;579.38;540.20;;;12.20;99.90;;;;;;5074519;28;20066;-60
2022/07/15 02:30:53;;;;;;;544.65;508.08;;;12.00;99.90;;;;;;5074713;28;20075;-60
2022/07/15 02:33:19;;;;;;;466.65;437.92;;;11.90;99.90;;;;;;5074153;28;20083;-60
2022/07/15 02:35:44;;;;;;;546.05;512.58;;;11.80;99.90;;;;;;5053605;28;20045;-60
2022/07/15 02:38:11;;;;;;;534.00;500.30;;;11.80;99.90;;;;;;5061906;28;20048;-60
2022/07/15 02:40:37;;;;;;;535.42;502.25;;;11.70;99.90;;;;;;5033864;28;20128;-60
2022/07/15 02:43:04;;;;;;;601.70;561.53;;;11.70;99.90;;;;;;5038876;28;20473;-60
2022/07/15 02:45:35;;;;;;;513.47;479.33;;;11.70;99.90;;;;;;5074296;28;20383;-60
2022/07/15 02:48:05;;;;;;;545.03;508.80;;;11.70;99.90;;;;;;5059508;28;20076;-60
2022/07/15 02:50:34;;;;;;;552.33;514.88;;;11.70;99.90;;;;;;5066009;28;20075;-60
2022/07/15 02:53:03;;;;;;;573.30;531.00;;;11.70;99.90;;;;;;5073770;28;20527;-60
2022/07/15 02:55:29;;;;;;;507.92;473.85;;;11.80;99.90;;;;;;5061347;28;20187;-60
2022/07/15 02:57:55;;;;;;;497.25;462.67;;;11.90;99.90;;;;;;5054165;28;20044;-60
2022/07/15 03:00:23;;;;;;;529.17;491.52;;;12.10;99.90;;;;;;5037497;28;20086;-60
2022/07/15 03:02:54;;;;;;;520.08;485.05;;;12.20;99.90;;;;;;5070273;28;20045;-60
2022/07/15 03:05:20;;;;;;;425.67;400.48;;;12.20;99.90;;;;;;5072482;28;20282;-60
2022/07/15 03:07:46;;;;;;;550.67;513.15;;;12.20;99.90;;;;;;5090006;28;20179;-60
2022/07/15 03:10:16;;;;;;;488.60;456.45;;;12.20;99.90;;;;;;5038088;28;20048;-60
2022/07/15 03:12:42;;;;;;;378.58;354.27;;;12.20;99.90;;;;;;5067334;28;20037;-60
2022/07/15 03:15:10;;;;;;;542.33;504.33;;;12.10;99.90;;;;;;5054034;28;20608;-60
2022/07/15 03:17:35;;;;;;;453.48;422.42;;;12.10;99.90;;;;;;5054441;28;20045;-60
2022/07/15 03:20:02;;;;;;;449.00;419.80;;;12.10;99.90;;;;;;5071475;28;20093;-60
2022/07/15 03:22:30;;;;;;;377.90;356.05;;;12.10;99.90;;;;;;5036863;28;20083;-60
2022/07/15 03:24:55;;;;;;;394.58;371.08;;;12.10;99.90;;;;;;5038388;28;20406;-60
2022/07/15 03:27:22;;;;;;;387.60;364.40;;;12.00;99.90;;;;;;5074982;28;20079;-60
2022/07/15 03:29:49;;;;;;;430.58;404.80;;;11.90;99.90;;;;;;5057015;28;20041;-60
2022/07/15 03:32:15;;;;;;;442.30;413.73;;;11.80;99.90;;;;;;5075727;28;20036;-60
2022/07/15 03:34:43;;;;;;;388.92;366.10;;;11.80;99.90;;;;;;5075160;28;20170;-60
2022/07/15 03:37:09;;;;;;;446.00;417.60;;;11.70;99.90;;;;;;5056688;28;20040;-60
2022/07/15 03:39:35;;;;;;;383.80;360.60;;;11.80;99.90;;;;;;5054110;28;20041;-60
2022/07/15 03:42:01;;;;;;;348.02;327.38;;;11.80;99.90;;;;;;5037041;28;20495;-60
2022/07/15 03:44:27;;;;;;;350.67;329.98;;;11.80;99.90;;;;;;5056181;28;20036;-60
2022/07/15 03:46:53;;;;;;;331.40;313.52;;;11.90;99.90;;;;;;5093883;28;20375;-60
2022/07/15 03:49:19;;;;;;;325.05;307.15;;;12.00;99.90;;;;;;5079800;28;20051;-60
2022/07/15 03:51:45;;;;;;;400.10;374.83;;;12.10;99.90;;;;;;5059916;28;20048;-60
2022/07/15 03:54:12;;;;;;;332.88;315.95;;;12.10;99.90;;;;;;5076787;28;20048;-60
2022/07/15 03:56:38;;;;;;;272.38;257.58;;;12.10;99.90;;;;;;5077058;28;20040;-60
2022/07/15 03:59:04;;;;;;;364.60;344.52;;;12.20;99.90;;;;;;5076692;28;20090;-60
2022/07/15 04:01:30;;;;;;;254.85;241.07;;;12.30;99.90;;;;;;5077377;28;20076;-60
2022/07/15 04:03:56;;;;;;;229.52;217.57;;;12.40;99.90;;;;;;5094024;28;20079;-60
2022/07/15 04:06:24;;;;;;;265.05;252.93;;;12.40;99.90;;;;;;5076464;28;20063;-60
2022/07/15 04:08:51;;;;;;;392.25;370.13;;;12.60;99.90;;;;;;5059584;28;20492;-60
2022/07/15 04:11:17;;;;;;;307.50;289.90;;;12.70;99.90;;;;;;5058173;28;20041;-60
2022/07/15 04:13:42;;;;;;;395.45;373.45;;;12.80;99.90;;;;;;5079365;28;20162;-60
2022/07/15 04:16:09;;;;;;;;;;;12.90;99.90;;;;;;5057320;28;20443;-59
2022/07/15 04:18:35;;;;;;;;;;;12.90;99.90;;;;;;5074047;28;19928;-60
2022/07/15 04:21:01;;;;;;;154.63;147.88;;;13.00;99.90;;;;;;5065716;28;19916;-60
2022/07/15 04:23:27;;;;;;;196.07;187.20;;;13.00;99.90;;;;;;5076743;28;20058;-60
2022/07/15 04:25:54;;;;;;;198.65;189.00;;;13.10;99.90;;;;;;5075878;28;20040;-60
2022/07/15 04:28:20;;;;;;;;;;;13.10;99.90;;;;;;5095218;28;20044;-60
2022/07/15 04:30:45;;;;;;;;;;;13.00;99.90;;;;;;5094804;28;19931;-60
2022/07/15 04:33:11;;;;;;;;;;;13.00;99.90;;;;;;5075862;28;19924;-60
2022/07/15 04:35:40;;;;;;;;;;;12.80;99.90;;;;;;5060779;28;19928;-60
2022/07/15 04:38:07;;;;;;;598.73;551.87;;;12.90;99.90;;;;;;5060279;28;19951;-60
2022/07/15 04:40:35;;;;;;;512.65;480.83;;;12.90;99.90;;;;;;5065725;28;20044;-60
2022/07/15 04:43:04;;;;;;;496.15;464.73;;;12.90;99.90;;;;;;5076343;28;20040;-60
2022/07/15 04:45:30;;;;;;;488.05;456.85;;;12.80;99.90;;;;;;5094506;28;20440;-60
2022/07/15 04:47:56;;;;;;;564.10;524.30;;;12.80;99.90;;;;;;5064353;28;20110;-60
2022/07/15 04:53:13;;;;;;;421.70;395.55;;;12.80;99.90;;;;;;5076513;28;20051;-60
2022/07/15 04:55:39;;;;;;;523.33;486.23;;;12.70;99.90;;;;;;5054504;28;20052;-60
2022/07/15 04:58:05;;;;;;;480.13;451.52;;;12.80;99.90;;;;;;5056365;28;20044;-60
2022/07/15 05:00:32;;;;;;;490.80;459.90;;;12.80;99.90;;;;;;5073957;28;20044;-60
2022/07/15 05:02:58;;;;;;;567.85;531.78;;;12.80;99.90;;;;;;5037855;28;20101;-60
2022/07/15 05:05:26;;;;;;;437.58;413.70;;;12.70;99.90;;;;;;5065684;28;20079;-60
2022/07/15 05:07:51;;;;;;;502.40;473.02;;;12.70;99.90;;;;;;5051955;28;20069;-60
2022/07/15 05:10:18;;;;;;;500.55;471.38;;;12.70;99.90;;;;;;5053497;28;20131;-60
2022/07/15 05:12:51;;;;;;;446.23;420.42;;;12.80;99.90;;;;;;5055979;28;20044;-60
2022/07/15 05:15:16;;;;;;;500.85;470.58;;;12.90;99.90;;;;;;5054990;28;20055;-60
2022/07/15 05:17:43;;;;;;;426.92;402.42;;;13.00;99.90;;;;;;5055528;28;20474;-60
2022/07/15 05:20:15;;;;;;;465.63;438.15;;;13.10;99.90;;;;;;5056029;28;20089;-60
2022/07/15 05:22:41;;;;;;;387.77;367.23;;;13.20;99.90;;;;;;5061760;28;20044;-60
2022/07/15 05:25:07;;;;;;;347.92;329.48;;;13.40;99.90;;;;;;5042973;28;20051;-60
2022/07/15 05:27:33;;;;;;;294.05;278.40;;;13.50;99.90;;;;;;5055407;28;20483;-60
2022/07/15 05:29:59;;;;;;;164.35;157.32;;;13.50;99.90;;;;;;5054583;28;20052;-60
2022/07/15 05:32:24;;;;;;;393.75;371.88;;;13.60;99.90;;;;;;5087017;28;20044;-60
2022/07/15 05:34:51;;;;;;;306.05;291.88;;;13.70;99.90;;;;;;5093794;28;20562;-60
2022/07/15 05:37:18;;;;;;;276.42;263.70;;;13.80;99.90;;;;;;5074693;28;20481;-60
2022/07/15 05:39:53;;;;;;;179.63;171.55;;;13.80;99.90;;;;;;5056333;28;20047;-60
2022/07/15 05:42:25;;;;;;;260.83;249.32;;;13.90;99.90;;;;;;5075132;28;20131;-60
2022/07/15 05:44:51;;;;;;;343.83;327.25;;;14.10;99.90;;;;;;5074570;28;20080;-60
2022/07/15 05:47:17;;;;;;;286.10;272.40;;;14.30;99.90;;;;;;5070124;28;20060;-60
2022/07/15 05:49:46;;;;;;;299.38;284.73;;;14.40;99.90;;;;;;5063050;28;20053;-60
2022/07/15 05:52:12;;;;;;;293.85;279.88;;;14.50;99.90;;;;;;5071769;28;20048;-60
2022/07/15 05:54:38;;;;;;;159.07;152.35;;;14.60;99.90;;;;;;5074884;28;20044;-60
2022/07/15 05:57:08;;;;;;;196.65;187.50;;;14.70;99.90;;;;;;5048090;28;20083;-60
2022/07/15 05:59:34;;;;;;;108.32;103.50;;;14.80;99.90;;;;;;5045067;28;20076;-60
2022/07/15 06:02:00;;;;;;;112.68;107.85;;;14.80;99.90;;;;;;5049719;28;20088;-60
2022/07/15 06:04:27;;;;;;;138.07;132.30;;;14.90;99.90;;;;;;5052832;28;20395;-60
2022/07/15 06:06:54;;;;;;;254.45;243.20;;;15.10;99.90;;;;;;5037545;28;20116;-60
2022/07/15 06:09:21;;;;;;;127.63;122.38;;;15.30;99.90;;;;;;5072037;28;20101;-60
2022/07/15 06:11:47;;;;;;;159.93;152.88;;;15.60;99.90;;;;;;5071688;28;20372;-60
2022/07/15 06:14:14;;;;;;;129.25;123.78;;;15.90;99.90;;;;;;5052996;28;20501;-60
2022/07/15 06:16:40;;;;;;;229.48;219.00;;;16.10;99.90;;;;;;5073115;28;20040;-60
2022/07/15 06:19:08;;;;;;;194.70;186.15;;;16.20;99.90;;;;;;5053764;28;20414;-60
2022/07/15 06:21:35;;;;;;;199.43;190.75;;;16.20;99.90;;;;;;5054443;28;20114;-60
2022/07/15 06:24:01;;;;;;;217.43;207.82;;;16.20;99.90;;;;;;5037865;28;20084;-60
2022/07/15 06:26:27;;;;;;;294.77;281.42;;;16.10;99.90;;;;;;5053287;28;20267;-60
2022/07/15 06:28:53;;;;;;;338.95;323.33;;;16.00;99.90;;;;;;5054152;28;20055;-60
2022/07/15 06:31:20;;;;;;;308.05;293.95;;;16.00;99.90;;;;;;5060832;28;20036;-60
2022/07/15 06:33:46;;;;;;;289.25;276.45;;;15.90;99.90;;;;;;5064507;28;20058;-60
2022/07/15 06:36:13;;;;;;;348.35;331.65;;;15.80;99.90;;;;;;5092567;28;20470;-60
2022/07/15 06:38:41;;;;;;;306.27;292.35;;;15.90;99.90;;;;;;5079990;28;20486;-60
2022/07/15 06:41:07;;;;;;;413.13;392.70;;;15.90;99.90;;;;;;5053629;28;20052;-60
2022/07/15 06:43:32;;;;;;;373.92;356.55;;;15.90;99.90;;;;;;5071966;28;20106;-60
2022/07/15 06:46:08;;;;;;;314.23;299.67;;;15.80;99.90;;;;;;5053437;28;20128;-60
2022/07/15 06:48:35;;;;;;;324.23;309.60;;;15.80;99.90;;;;;;5054421;28;20048;-60
2022/07/15 06:51:00;;;;;;;444.63;420.30;;;15.80;99.90;;;;;;5072848;28;20043;-60
2022/07/15 06:53:26;;;;;;;435.92;413.92;;;15.80;99.90;;;;;;5073525;28;20048;-60
2022/07/15 06:55:52;;;;;;;258.95;246.10;;;15.80;99.90;;;;;;5074902;28;20088;-60
2022/07/15 06:58:18;;;;;;;351.50;333.90;;;15.60;99.90;;;;;;5074686;28;20044;-60
2022/07/15 07:00:44;;;;;;;252.65;241.70;;;15.50;99.90;;;;;;5093479;28;20643;-60
2022/07/15 07:03:09;;;;;;;277.75;264.63;;;15.20;99.90;;;;;;5055953;28;20048;-60
2022/07/15 07:05:35;;;;;;;277.02;264.63;;;15.00;99.90;;;;;;5058272;28;20041;-60
2022/07/15 07:08:02;;;;;;;229.98;219.23;;;14.90;99.90;;;;;;5056773;28;20150;-60
2022/07/15 07:10:28;;;;;;;302.58;288.58;;;14.80;99.90;;;;;;5096470;28;20612;-60
2022/07/15 07:12:54;;;;;;;208.65;199.77;;;14.70;99.90;;;;;;5070163;28;20095;-60
2022/07/15 07:15:21;;;;;;;204.27;194.43;;;14.80;99.90;;;;;;5074922;28;20080;-60
2022/07/15 07:17:46;;;;;;;159.82;152.80;;;14.90;99.90;;;;;;5083059;28;20044;-60
2022/07/15 07:20:12;;;;;;;357.98;341.65;;;15.10;99.90;;;;;;5096368;28;20081;-60
2022/07/15 07:22:38;;;;;;;164.40;157.00;;;15.40;99.90;;;;;;5095153;28;20248;-60
2022/07/15 07:25:04;;;;;;;153.88;146.85;;;15.80;99.90;;;;;;5095658;28;20059;-60
2022/07/15 07:27:30;;;;;;;321.05;306.13;;;16.20;99.90;;;;;;5095540;28;20036;-60
2022/07/15 07:29:56;;;;;;;170.80;163.52;;;16.30;99.90;;;;;;5095356;28;20588;-60
2022/07/15 07:32:21;;;;;;;207.98;198.65;;;16.10;99.90;;;;;;5095631;28;20543;-60
2022/07/15 07:34:47;;;;;;;270.58;257.75;;;16.10;99.90;;;;;;5095423;28;20067;-60
2022/07/15 07:37:13;;;;;;;188.55;180.18;;;16.10;99.90;;;;;;5095190;28;20201;-60
2022/07/15 07:39:39;;;;;;;124.78;119.57;;;16.20;99.90;;;;;;5075364;28;20084;-60
2022/07/15 07:42:05;;;;;;;137.52;131.70;;;16.50;99.90;;;;;;5075286;28;20059;-60
2022/07/15 07:44:30;;;;;;;296.40;282.73;;;16.70;99.90;;;;;;5083199;28;20036;-60
2022/07/15 07:46:56;;;;;;;229.38;219.10;;;16.80;99.90;;;;;;5093406;28;20090;-60
2022/07/15 07:49:22;;;;;;;244.90;233.40;;;16.70;99.90;;;;;;5080413;28;20044;-60
2022/07/15 07:51:48;;;;;;;411.95;392.45;;;16.50;99.90;;;;;;5076574;28;20044;-60
2022/07/15 07:54:13;;;;;;;295.75;282.83;;;16.50;99.90;;;;;;5086904;28;20094;-60
2022/07/15 07:56:39;;;;;;;158.00;151.25;;;16.50;99.90;;;;;;5074555;28;20056;-60
2022/07/15 07:59:05;;;;;;;338.42;322.73;;;16.40;99.90;;;;;;5057140;28;20090;-60
2022/07/15 08:01:31;;;;;;;311.10;296.27;;;16.40;99.90;;;;;;5077128;28;20067;-60
2022/07/15 08:03:56;;;;;;;338.63;322.38;;;16.40;99.90;;;;;;5094266;28;20048;-60
2022/07/15 08:06:22;;;;;;;303.23;289.65;;;16.40;99.90;;;;;;5095216;28;20123;-60
2022/07/15 08:08:48;;;;;;;275.13;262.95;;;16.60;99.90;;;;;;5066185;28;20048;-60
2022/07/15 08:11:14;;;;;;;365.85;348.33;;;16.70;99.90;;;;;;5075791;28;20494;-60
2022/07/15 08:13:40;;;;;;;435.33;412.25;;;16.70;99.90;;;;;;5075014;28;20048;-60
2022/07/15 08:16:06;;;;;;;253.48;242.18;;;16.80;99.90;;;;;;5074529;28;20032;-60
2022/07/15 08:18:32;;;;;;;224.25;214.63;;;16.70;99.90;;;;;;5073366;28;20412;-60
2022/07/15 08:20:58;;;;;;;418.45;396.63;;;16.80;99.90;;;;;;5074216;28;20044;-60
2022/07/15 08:23:24;;;;;;;281.58;269.27;;;17.20;99.90;;;;;;5073844;28;20053;-60
2022/07/15 08:25:51;;;;;;;377.80;359.85;;;17.40;99.90;;;;;;5073505;28;20033;-60
2022/07/15 08:28:17;;;;;;;325.88;310.70;;;17.50;99.90;;;;;;5072156;28;20044;-60
2022/07/15 08:30:44;;;;;;;341.52;324.20;;;17.60;99.90;;;;;;5073525;28;20040;-60
2022/07/15 08:33:10;;;;;;;236.65;225.60;;;17.60;99.90;;;;;;5068233;28;20044;-60
2022/07/15 08:35:36;;;;;;;245.32;234.75;;;17.60;99.90;;;;;;5072746;28;20052;-60
2022/07/15 08:38:06;;;;;;;370.88;349.85;;;17.60;99.90;;;;;;5074099;28;20384;-60
2022/07/15 08:40:34;;;;;;;277.70;263.90;;;17.50;99.90;;;;;;5070309;28;20637;-61
2022/07/15 08:43:00;;;;;;;256.92;245.27;;;17.50;99.90;;;;;;5073665;28;20587;-60
2022/07/15 08:45:27;;;;;;;173.93;166.48;;;17.60;99.90;;;;;;5073542;28;20047;-60
2022/07/15 08:47:54;;;;;;;242.70;232.15;;;17.80;99.90;;;;;;5065994;28;20047;-60
2022/07/15 08:50:22;;;;;;;275.15;262.60;;;17.80;99.90;;;;;;5051846;28;20045;-60
2022/07/15 08:52:48;;;;;;;251.55;239.30;;;17.90;99.90;;;;;;5072611;28;20059;-60
2022/07/15 08:55:15;;;;;;;309.85;295.58;;;18.10;99.90;;;;;;5082515;28;20044;-60
2022/07/15 08:57:45;;;;;;;346.98;328.35;;;;;;;;;;5094270;28;20052;-60
2022/07/15 09:00:11;;;;;;;449.00;423.48;;;18.20;99.90;;;;;;5070944;28;20051;-60
2022/07/15 09:02:38;;;;;;;338.52;323.27;;;18.20;99.90;;;;;;5073730;28;20053;-60
2022/07/15 09:05:18;;;;;;;417.35;396.98;;;18.10;99.90;;;;;;5091185;28;20055;-60
2022/07/15 09:07:52;;;;;;;405.27;384.42;;;18.10;99.90;;;;;;5080176;28;20044;-60
2022/07/15 09:10:18;;;;;;;320.98;300.38;;;18.20;99.90;;;;;;5073577;28;20131;-60
2022/07/15 09:12:47;;;;;;;467.88;439.77;;;18.30;99.90;;;;;;5063136;28;20131;-60
2022/07/15 09:15:33;;;;;;;346.75;330.33;;;18.20;99.90;;;;;;5086903;28;20037;-60
2022/07/15 09:18:06;;;;;;;414.05;392.55;;;18.50;99.90;;;;;;5072879;28;20445;-60
2022/07/15 09:20:32;;;;;;;;;;;18.70;99.90;;;;;;5072850;28;20099;-61
2022/07/15 09:22:58;;;;;;;428.27;406.50;;;18.80;99.90;;;;;;5072010;28;19924;-60
2022/07/15 09:25:24;;;;;;;415.98;395.20;;;18.70;99.90;;;;;;5072029;28;20051;-60
2022/07/15 09:27:51;;;;;;;460.17;431.52;;;18.80;99.90;;;;;;5072066;28;20036;-60
2022/07/15 09:36:05;;;;;;;467.35;443.48;;;18.50;99.90;;;;;;5072048;28;20056;-60
2022/07/15 09:38:34;;;;;;;492.23;464.25;;;18.20;99.90;;;;;;5064603;28;20052;-60
2022/07/15 09:41:01;;;;;;;499.13;473.25;;;18.10;99.90;;;;;;5072828;28;20051;-60
2022/07/15 09:43:28;;;;;;;464.23;440.42;;;18.10;99.90;;;;;;5070719;28;20048;-60
2022/07/15 09:46:00;;;;;;;472.60;447.30;;;18.20;99.90;;;;;;5070537;28;20040;-60
2022/07/15 09:48:28;;;;;;;485.67;460.48;;;18.70;99.90;;;;;;5081706;28;20039;-60
2022/07/15 09:51:00;;;;;;;435.05;413.55;;;19.00;99.90;;;;;;5069299;28;20463;-60
2022/07/15 09:53:27;;;;;;;490.45;465.20;;;19.30;99.90;;;;;;5073262;28;20075;-60
2022/07/15 09:55:53;;;;;;;364.33;345.45;;;19.40;99.90;;;;;;5072975;28;20044;-61
2022/07/15 09:58:20;;;;;;;321.65;304.50;;;19.30;99.90;;;;;;5071300;28;20099;-60
2022/07/15 10:00:47;;;;;;;391.77;372.20;;;19.20;99.90;;;;;;5052714;28;20045;-60
2022/07/15 10:03:13;;;;;;;359.95;343.30;;;18.80;99.90;;;;;;5051500;28;20154;-60
2022/07/15 10:05:39;;;;;;;401.33;381.85;;;18.50;99.90;;;;;;5068804;28;20048;-60
2022/07/15 10:08:08;;;;;;;557.72;527.60;;;18.30;99.90;;;;;;5072648;28;20094;-60
2022/07/15 10:10:37;;;;;;;606.40;570.88;;;18.20;99.90;;;;;;5072283;28;20076;-60
2022/07/15 10:13:29;;;;;;;641.28;601.03;;;18.10;99.90;;;;;;5072178;28;20406;-60
2022/07/15 10:16:05;;;;;;;685.28;640.88;;;18.20;99.90;;;;;;5089900;28;20040;-60
2022/07/15 10:18:53;;;;;;;594.90;558.13;;;18.30;99.90;;;;;;5083942;28;20116;-60
2022/07/15 10:22:00;;;;;;;527.95;498.83;;;18.30;99.90;;;;;;5071567;28;20412;-60
2022/07/15 10:24:43;;;;;;;511.08;484.55;;;18.10;99.90;;;;;;5085932;28;20409;-60
2022/07/15 10:27:34;;;;;;;600.67;566.70;;;18.00;99.90;;;;;;5092897;28;20397;-61
2022/07/15 10:30:07;;;;;;;552.90;522.88;;;18.00;99.90;;;;;;5092070;28;20040;-60
2022/07/15 10:33:02;;;;;;;479.60;455.35;;;18.00;99.90;;;;;;5078447;28;20075;-60
2022/07/15 10:35:46;;;;;;;530.00;501.33;;;18.00;99.90;;;;;;5054233;28;20053;-60
2022/07/15 10:38:21;;;;;;;450.45;428.13;;;18.10;99.90;;;;;;5056748;28;20073;-60
2022/07/15 10:40:58;;;;;;;379.58;360.70;;;18.40;99.90;;;;;;5062722;28;20192;-61
2022/07/15 10:43:47;;;;;;;469.85;446.52;;;18.70;99.90;;;;;;5096281;28;20401;-60
2022/07/15 10:46:16;;;;;;;481.02;450.65;;;19.00;99.90;;;;;;5096036;28;20122;-60
2022/07/15 10:49:14;;;;;;;469.42;442.00;;;18.90;99.90;;;;;;5080423;28;20091;-60
2022/07/15 10:51:40;;;;;;;495.77;469.55;;;18.80;99.90;;;;;;5096158;28;20051;-60
2022/07/15 10:54:07;;;;;;;545.95;516.60;;;18.60;99.90;;;;;;5096099;28;20047;-60
2022/07/15 10:56:42;;;;;;;605.05;569.40;;;18.60;99.90;;;;;;5096608;28;20481;-60
2022/07/15 10:59:11;;;;;;;542.97;510.08;;;18.60;99.90;;;;;;5085701;28;20426;-60
2022/07/15 11:01:38;;;;;;;528.10;500.00;;;18.60;99.90;;;;;;5095861;28;20040;-60
2022/07/15 11:04:13;;;;;;;498.67;465.63;;;18.60;99.90;;;;;;5076204;28;20064;-60
2022/07/15 11:07:07;;;;;;;531.00;500.25;;;18.70;99.90;;;;;;5057795;28;20544;-60
2022/07/15 11:09:51;;;;;;;1999.90;999.90;;;18.80;99.90;;;;;;5072839;28;20136;-60
2022/07/15 11:12:20;;;;;;;1999.90;999.90;;;19.00;99.90;;;;;;5074936;28;20040;-60
2022/07/15 11:14:55;;;;;;;1530.75;778.33;;;19.10;99.90;;;;;;5073688;28;20044;-60
2022/07/15 11:17:38;;;;;;;513.47;485.73;;;19.10;99.90;;;;;;5055771;28;20049;-60
2022/07/15 11:20:08;;;;;;;1999.90;999.90;;;18.90;99.90;;;;;;5074597;28;20045;-60
2022/07/15 11:22:37;;;;;;;484.23;458.35;;;18.80;99.90;;;;;;5056741;28;20403;-60
2022/07/15 11:25:04;;;;;;;499.17;471.25;;;18.50;99.90;;;;;;5074366;28;20055;-60
2022/07/15 11:27:30;;;;;;;617.20;579.25;;;18.20;99.90;;;;;;5074342;28;20119;-60
2022/07/15 11:30:02;;;;;;;540.95;507.35;;;18.00;99.90;;;;;;5075902;28;20533;-60
2022/07/15 11:32:30;;;;;;;556.30;525.53;;;17.80;99.90;;;;;;5075601;28;20049;-60
2022/07/15 11:34:58;;;;;;;1621.60;863.75;;;17.70;99.90;;;;;;5086025;28;20050;-60
2022/07/15 11:37:25;;;;;;;426.90;404.60;;;17.70;99.90;;;;;;5095981;28;20046;-60
2022/07/15 11:40:05;;;;;;;1572.70;817.78;;;17.70;99.90;;;;;;5095885;28;20048;-60
2022/07/15 11:45:37;;;;;;;479.42;454.10;;;17.80;99.90;;;;;;5073080;28;20155;-60
2022/07/15 11:48:06;;;;;;;1567.32;813.72;;;17.80;99.90;;;;;;5055664;28;20496;-60
2022/07/15 11:50:34;;;;;;;1999.90;999.90;;;17.90;99.90;;;;;;5087307;28;20044;-60
2022/07/15 11:53:00;;;;;;;394.80;373.73;;;18.00;99.90;;;;;;5095505;28;20048;-60
2022/07/15 11:55:26;;;;;;;1999.90;999.90;;;18.10;99.90;;;;;;5095345;28;20040;-60
2022/07/15 11:57:52;;;;;;;1999.90;999.90;;;18.30;99.90;;;;;;5074335;28;20083;-60
2022/07/15 12:00:27;;;;;;;1999.90;999.90;;;18.50;99.90;;;;;;5075239;28;20127;-60
2022/07/15 12:03:05;;;;;;;1999.90;999.90;;;18.80;99.90;;;;;;5056813;28;20049;-60
2022/07/15 12:05:31;;;;;;;1999.90;999.90;;;19.10;99.90;;;;;;5076776;28;20053;-60
2022/07/15 12:07:57;;;;;;;1999.90;999.90;;;19.30;99.90;;;;;;5074420;28;20063;-60
2022/07/15 12:10:34;;;;;;;1999.90;999.90;;;19.20;99.90;;;;;;5068036;28;20505;-61
2022/07/15 12:13:01;;;;;;;326.85;307.50;;;19.10;99.90;;;;;;5091360;28;20068;-60
2022/07/15 12:15:29;;;;;;;1999.90;999.90;;;18.90;99.90;;;;;;5094958;28;20086;-60
2022/07/15 12:17:55;;;;;;;1581.35;824.38;;;18.70;99.90;;;;;;5093235;28;20105;-60
2022/07/15 12:20:22;;;;;;;1999.90;999.90;;;18.40;99.90;;;;;;5055952;28;20060;-60
2022/07/15 12:23:07;;;;;;;1248.20;730.83;;;18.10;99.90;;;;;;5069773;28;20135;-60
2022/07/15 12:25:33;;;;;;;460.58;430.13;;;17.70;99.90;;;;;;5094100;28;20478;-60
2022/07/15 12:27:59;;;;;;;474.95;449.60;;;17.20;99.90;;;;;;5070274;28;20184;-60
2022/07/15 12:30:35;;;;;;;321.45;306.17;;;16.80;99.90;;;;;;5054278;28;20048;-60